sensor_id;sensor_type;location;lat;lon;timestamp;P1;durP1;ratioP1;P2;durP2;ratioP2
35907;SDS011;22003;50.320;8.054;2023-04-08T04:00:30;42.95;;;10.43;;
35907;SDS011;22003;50.320;8.054;2023-04-08T04:02:55;31.20;;;12.95;;
35907;SDS011;22003;50.320;8.054;2023-04-08T04:05:20;40.88;;;14.02;;
35907;SDS011;22003;50.320;8.054;2023-04-08T04:07:46;29.98;;;12.55;;
35907;SDS011;22003;50.320;8.054;2023-04-08T04:10:11;32.55;;;14.07;;
35907;SDS011;22003;50.320;8.054;2023-04-08T04:12:36;38.17;;;13.00;;
35907;SDS011;22003;50.320;8.054;2023-04-08T04:15:02;27.05;;;12.05;;
35907;SDS011;22003;50.320;8.054;2023-04-08T04:17:27;30.00;;;12.68;;
35907;SDS011;22003;50.320;8.054;2023-04-08T04:19:53;28.15;;;11.52;;
35907;SDS011;22003;50.320;8.054;2023-04-08T04:22:18;27.17;;;10.88;;
35907;SDS011;22003;50.320;8.054;2023-04-08T04:24:47;70.63;;;13.38;;
35907;SDS011;22003;50.320;8.054;2023-04-08T04:27:13;49.10;;;10.43;;
35907;SDS011;22003;50.320;8.054;2023-04-08T04:29:38;57.58;;;10.63;;
35907;SDS011;22003;50.320;8.054;2023-04-08T04:32:04;174.10;;;17.83;;
35907;SDS011;22003;50.320;8.054;2023-04-08T04:34:30;120.82;;;13.95;;
35907;SDS011;22003;50.320;8.054;2023-04-08T04:36:55;105.68;;;13.13;;
35907;SDS011;22003;50.320;8.054;2023-04-08T04:39:21;84.03;;;9.95;;
35907;SDS011;22003;50.320;8.054;2023-04-08T04:41:46;205.07;;;15.82;;
35907;SDS011;22003;50.320;8.054;2023-04-08T04:44:13;185.85;;;14.88;;
35907;SDS011;22003;50.320;8.054;2023-04-08T04:46:38;125.20;;;11.77;;
35907;SDS011;22003;50.320;8.054;2023-04-08T04:49:03;95.70;;;12.68;;
35907;SDS011;22003;50.320;8.054;2023-04-08T04:51:30;112.43;;;12.82;;
35907;SDS011;22003;50.320;8.054;2023-04-08T04:53:56;121.80;;;14.80;;
35907;SDS011;22003;50.320;8.054;2023-04-08T04:56:21;130.55;;;15.68;;
35907;SDS011;22003;50.320;8.054;2023-04-08T04:58:46;181.32;;;18.85;;
35907;SDS011;22003;50.320;8.054;2023-04-08T05:01:11;149.55;;;17.05;;
35907;SDS011;22003;50.320;8.054;2023-04-08T05:03:37;129.13;;;15.90;;
35907;SDS011;22003;50.320;8.054;2023-04-08T05:06:02;127.57;;;17.67;;
35907;SDS011;22003;50.320;8.054;2023-04-08T05:08:28;97.18;;;14.43;;
35907;SDS011;22003;50.320;8.054;2023-04-08T05:10:53;109.07;;;13.25;;
35907;SDS011;22003;50.320;8.054;2023-04-08T05:13:20;98.38;;;14.55;;
35907;SDS011;22003;50.320;8.054;2023-04-08T05:15:45;108.97;;;14.40;;
35907;SDS011;22003;50.320;8.054;2023-04-08T05:18:10;100.80;;;15.98;;
35907;SDS011;22003;50.320;8.054;2023-04-08T05:20:36;56.45;;;11.38;;
35907;SDS011;22003;50.320;8.054;2023-04-08T05:23:01;64.07;;;11.48;;
35907;SDS011;22003;50.320;8.054;2023-04-08T05:25:26;54.33;;;12.25;;
35907;SDS011;22003;50.320;8.054;2023-04-08T05:27:51;79.93;;;12.77;;
35907;SDS011;22003;50.320;8.054;2023-04-08T05:30:17;31.98;;;10.02;;
35907;SDS011;22003;50.320;8.054;2023-04-08T05:32:42;68.15;;;12.07;;
35907;SDS011;22003;50.320;8.054;2023-04-08T05:35:08;96.22;;;13.57;;
35907;SDS011;22003;50.320;8.054;2023-04-08T05:37:34;88.57;;;13.52;;
35907;SDS011;22003;50.320;8.054;2023-04-08T05:39:59;76.20;;;13.63;;
35907;SDS011;22003;50.320;8.054;2023-04-08T05:42:24;54.42;;;11.23;;
35907;SDS011;22003;50.320;8.054;2023-04-08T05:44:51;53.88;;;11.10;;
35907;SDS011;22003;50.320;8.054;2023-04-08T05:47:16;73.30;;;13.10;;
35907;SDS011;22003;50.320;8.054;2023-04-08T05:49:41;34.88;;;11.15;;
35907;SDS011;22003;50.320;8.054;2023-04-08T05:52:06;116.65;;;14.63;;
35907;SDS011;22003;50.320;8.054;2023-04-08T05:54:31;71.05;;;12.38;;
35907;SDS011;22003;50.320;8.054;2023-04-08T05:56:57;48.13;;;10.45;;
35907;SDS011;22003;50.320;8.054;2023-04-08T05:59:22;48.78;;;9.10;;
35907;SDS011;22003;50.320;8.054;2023-04-08T06:01:47;59.03;;;10.13;;
35907;SDS011;22003;50.320;8.054;2023-04-08T06:04:13;116.70;;;13.75;;
35907;SDS011;22003;50.320;8.054;2023-04-08T06:06:38;106.72;;;13.70;;
35907;SDS011;22003;50.320;8.054;2023-04-08T06:09:04;67.28;;;12.23;;
35907;SDS011;22003;50.320;8.054;2023-04-08T06:11:29;111.32;;;14.05;;
35907;SDS011;22003;50.320;8.054;2023-04-08T06:13:55;71.90;;;12.48;;
35907;SDS011;22003;50.320;8.054;2023-04-08T06:16:20;53.65;;;11.02;;
35907;SDS011;22003;50.320;8.054;2023-04-08T06:18:45;59.80;;;11.05;;
35907;SDS011;22003;50.320;8.054;2023-04-08T06:21:11;32.30;;;11.25;;
35907;SDS011;22003;50.320;8.054;2023-04-08T06:23:36;34.45;;;11.85;;
35907;SDS011;22003;50.320;8.054;2023-04-08T06:26:01;36.47;;;11.23;;
35907;SDS011;22003;50.320;8.054;2023-04-08T06:28:30;39.17;;;11.68;;
35907;SDS011;22003;50.320;8.054;2023-04-08T06:30:56;31.20;;;10.55;;
35907;SDS011;22003;50.320;8.054;2023-04-08T06:33:21;34.70;;;9.68;;
35907;SDS011;22003;50.320;8.054;2023-04-08T06:35:47;38.95;;;10.07;;
35907;SDS011;22003;50.320;8.054;2023-04-08T06:38:12;145.55;;;15.68;;
35907;SDS011;22003;50.320;8.054;2023-04-08T06:40:40;167.57;;;15.07;;
35907;SDS011;22003;50.320;8.054;2023-04-08T06:43:05;72.82;;;10.82;;
35907;SDS011;22003;50.320;8.054;2023-04-08T06:45:31;83.18;;;11.52;;
35907;SDS011;22003;50.320;8.054;2023-04-08T06:47:57;82.70;;;11.90;;
35907;SDS011;22003;50.320;8.054;2023-04-08T06:50:22;68.63;;;11.52;;
35907;SDS011;22003;50.320;8.054;2023-04-08T06:52:47;44.40;;;12.32;;
35907;SDS011;22003;50.320;8.054;2023-04-08T06:55:13;30.52;;;9.52;;
35907;SDS011;22003;50.320;8.054;2023-04-08T06:57:38;26.55;;;11.13;;
35907;SDS011;22003;50.320;8.054;2023-04-08T07:00:03;22.77;;;11.23;;
35907;SDS011;22003;50.320;8.054;2023-04-08T07:02:29;32.80;;;16.70;;
35907;SDS011;22003;50.320;8.054;2023-04-08T07:04:54;47.15;;;23.92;;
35907;SDS011;22003;50.320;8.054;2023-04-08T07:07:20;61.03;;;30.45;;
35907;SDS011;22003;50.320;8.054;2023-04-08T07:09:45;51.20;;;28.70;;
35907;SDS011;22003;50.320;8.054;2023-04-08T07:12:13;54.65;;;27.98;;
35907;SDS011;22003;50.320;8.054;2023-04-08T07:14:38;57.03;;;27.75;;
35907;SDS011;22003;50.320;8.054;2023-04-08T07:17:04;41.80;;;22.92;;
35907;SDS011;22003;50.320;8.054;2023-04-08T07:19:29;38.83;;;20.38;;
35907;SDS011;22003;50.320;8.054;2023-04-08T07:21:55;38.00;;;20.35;;
35907;SDS011;22003;50.320;8.054;2023-04-08T07:24:21;36.90;;;18.67;;
35907;SDS011;22003;50.320;8.054;2023-04-08T07:26:47;35.60;;;18.27;;
35907;SDS011;22003;50.320;8.054;2023-04-08T07:29:12;38.10;;;18.55;;
35907;SDS011;22003;50.320;8.054;2023-04-08T07:31:37;32.50;;;18.02;;
35907;SDS011;22003;50.320;8.054;2023-04-08T07:34:03;32.03;;;17.88;;
35907;SDS011;22003;50.320;8.054;2023-04-08T07:36:28;33.60;;;17.80;;
35907;SDS011;22003;50.320;8.054;2023-04-08T07:38:53;30.50;;;16.95;;
35907;SDS011;22003;50.320;8.054;2023-04-08T07:41:19;26.25;;;15.88;;
35907;SDS011;22003;50.320;8.054;2023-04-08T07:43:45;27.30;;;15.05;;
35907;SDS011;22003;50.320;8.054;2023-04-08T07:46:10;29.48;;;14.82;;
35907;SDS011;22003;50.320;8.054;2023-04-08T07:48:35;24.67;;;13.85;;
35907;SDS011;22003;50.320;8.054;2023-04-08T07:51:05;21.30;;;12.23;;
35907;SDS011;22003;50.320;8.054;2023-04-08T07:53:32;24.55;;;13.65;;
35907;SDS011;22003;50.320;8.054;2023-04-08T07:55:58;21.67;;;12.65;;
35907;SDS011;22003;50.320;8.054;2023-04-08T07:58:24;21.17;;;12.43;;
35907;SDS011;22003;50.320;8.054;2023-04-08T08:00:50;20.73;;;12.10;;
35907;SDS011;22003;50.320;8.054;2023-04-08T08:03:15;23.73;;;13.20;;
35907;SDS011;22003;50.320;8.054;2023-04-08T08:05:41;25.38;;;15.45;;
35907;SDS011;22003;50.320;8.054;2023-04-08T08:08:06;20.55;;;13.52;;
35907;SDS011;22003;50.320;8.054;2023-04-08T08:10:31;22.08;;;13.15;;
35907;SDS011;22003;50.320;8.054;2023-04-08T08:12:57;20.08;;;13.02;;
35907;SDS011;22003;50.320;8.054;2023-04-08T08:15:22;19.75;;;12.02;;
35907;SDS011;22003;50.320;8.054;2023-04-08T08:17:47;20.48;;;11.93;;
35907;SDS011;22003;50.320;8.054;2023-04-08T08:20:13;24.80;;;12.70;;
35907;SDS011;22003;50.320;8.054;2023-04-08T08:22:38;19.95;;;12.63;;
35907;SDS011;22003;50.320;8.054;2023-04-08T08:25:03;21.27;;;13.63;;
35907;SDS011;22003;50.320;8.054;2023-04-08T08:27:29;25.52;;;15.15;;
35907;SDS011;22003;50.320;8.054;2023-04-08T08:29:54;22.23;;;13.50;;
35907;SDS011;22003;50.320;8.054;2023-04-08T08:32:20;21.58;;;13.80;;
35907;SDS011;22003;50.320;8.054;2023-04-08T08:34:46;21.77;;;13.63;;
35907;SDS011;22003;50.320;8.054;2023-04-08T08:37:11;21.77;;;14.68;;
35907;SDS011;22003;50.320;8.054;2023-04-08T08:39:36;20.45;;;13.70;;
35907;SDS011;22003;50.320;8.054;2023-04-08T08:42:02;22.58;;;14.63;;
35907;SDS011;22003;50.320;8.054;2023-04-08T08:44:28;21.08;;;14.10;;
35907;SDS011;22003;50.320;8.054;2023-04-08T08:46:54;20.10;;;13.10;;
35907;SDS011;22003;50.320;8.054;2023-04-08T08:49:19;21.90;;;13.68;;
35907;SDS011;22003;50.320;8.054;2023-04-08T08:51:45;24.98;;;14.70;;
35907;SDS011;22003;50.320;8.054;2023-04-08T08:54:11;22.02;;;13.23;;
35907;SDS011;22003;50.320;8.054;2023-04-08T08:56:36;21.20;;;13.48;;
35907;SDS011;22003;50.320;8.054;2023-04-08T08:59:02;26.17;;;14.38;;
35907;SDS011;22003;50.320;8.054;2023-04-08T09:01:37;22.58;;;14.43;;
35907;SDS011;22003;50.320;8.054;2023-04-08T09:04:14;22.45;;;14.45;;
35907;SDS011;22003;50.320;8.054;2023-04-08T09:06:42;23.60;;;14.18;;
35907;SDS011;22003;50.320;8.054;2023-04-08T09:09:08;22.67;;;14.05;;
35907;SDS011;22003;50.320;8.054;2023-04-08T09:11:34;23.42;;;14.65;;
35907;SDS011;22003;50.320;8.054;2023-04-08T09:14:02;23.00;;;13.73;;
35907;SDS011;22003;50.320;8.054;2023-04-08T09:16:27;24.10;;;14.32;;
35907;SDS011;22003;50.320;8.054;2023-04-08T09:18:55;24.60;;;14.82;;
35907;SDS011;22003;50.320;8.054;2023-04-08T09:21:32;24.73;;;15.15;;
35907;SDS011;22003;50.320;8.054;2023-04-08T09:23:57;23.13;;;14.57;;
35907;SDS011;22003;50.320;8.054;2023-04-08T09:26:23;24.02;;;14.73;;
35907;SDS011;22003;50.320;8.054;2023-04-08T09:28:59;22.08;;;13.55;;
35907;SDS011;22003;50.320;8.054;2023-04-08T09:31:33;23.98;;;14.70;;
35907;SDS011;22003;50.320;8.054;2023-04-08T09:34:14;22.85;;;13.77;;
35907;SDS011;22003;50.320;8.054;2023-04-08T09:36:42;23.75;;;14.38;;
35907;SDS011;22003;50.320;8.054;2023-04-08T09:39:11;23.48;;;15.18;;
35907;SDS011;22003;50.320;8.054;2023-04-08T09:41:37;24.42;;;15.02;;
35907;SDS011;22003;50.320;8.054;2023-04-08T09:44:04;24.88;;;14.90;;
35907;SDS011;22003;50.320;8.054;2023-04-08T09:46:32;24.02;;;14.90;;
35907;SDS011;22003;50.320;8.054;2023-04-08T09:54:54;24.85;;;15.07;;
35907;SDS011;22003;50.320;8.054;2023-04-08T10:00:12;24.65;;;14.85;;
35907;SDS011;22003;50.320;8.054;2023-04-08T10:05:21;23.00;;;14.23;;
35907;SDS011;22003;50.320;8.054;2023-04-08T10:07:49;21.83;;;13.85;;
35907;SDS011;22003;50.320;8.054;2023-04-08T10:10:15;25.05;;;14.48;;
35907;SDS011;22003;50.320;8.054;2023-04-08T10:12:41;26.15;;;15.00;;
35907;SDS011;22003;50.320;8.054;2023-04-08T10:15:29;24.15;;;14.13;;
35907;SDS011;22003;50.320;8.054;2023-04-08T10:23:03;26.17;;;14.77;;
35907;SDS011;22003;50.320;8.054;2023-04-08T10:25:35;22.88;;;14.75;;
35907;SDS011;22003;50.320;8.054;2023-04-08T10:30:48;23.80;;;13.70;;
35907;SDS011;22003;50.320;8.054;2023-04-08T10:33:34;21.38;;;14.18;;
35907;SDS011;22003;50.320;8.054;2023-04-08T10:38:30;24.73;;;15.77;;
35907;SDS011;22003;50.320;8.054;2023-04-08T10:40:56;22.00;;;14.65;;
35907;SDS011;22003;50.320;8.054;2023-04-08T10:43:22;21.13;;;13.25;;
35907;SDS011;22003;50.320;8.054;2023-04-08T10:45:48;20.42;;;13.75;;
35907;SDS011;22003;50.320;8.054;2023-04-08T10:50:52;21.88;;;13.30;;
35907;SDS011;22003;50.320;8.054;2023-04-08T10:53:25;24.33;;;13.75;;
35907;SDS011;22003;50.320;8.054;2023-04-08T10:56:10;21.45;;;12.85;;
35907;SDS011;22003;50.320;8.054;2023-04-08T10:58:51;22.20;;;13.77;;
35907;SDS011;22003;50.320;8.054;2023-04-08T11:01:19;17.65;;;12.50;;
35907;SDS011;22003;50.320;8.054;2023-04-08T11:03:44;23.58;;;13.80;;
35907;SDS011;22003;50.320;8.054;2023-04-08T11:06:09;21.48;;;13.43;;
35907;SDS011;22003;50.320;8.054;2023-04-08T11:08:36;19.60;;;13.60;;
35907;SDS011;22003;50.320;8.054;2023-04-08T11:11:02;19.05;;;12.13;;
35907;SDS011;22003;50.320;8.054;2023-04-08T11:13:32;20.05;;;13.63;;
35907;SDS011;22003;50.320;8.054;2023-04-08T11:15:59;19.33;;;12.57;;
35907;SDS011;22003;50.320;8.054;2023-04-08T11:18:26;20.00;;;13.07;;
35907;SDS011;22003;50.320;8.054;2023-04-08T11:20:52;20.05;;;13.38;;
35907;SDS011;22003;50.320;8.054;2023-04-08T11:23:18;21.58;;;13.30;;
35907;SDS011;22003;50.320;8.054;2023-04-08T11:25:43;19.42;;;12.80;;
35907;SDS011;22003;50.320;8.054;2023-04-08T11:28:10;20.27;;;12.68;;
35907;SDS011;22003;50.320;8.054;2023-04-08T11:30:39;17.42;;;11.80;;
35907;SDS011;22003;50.320;8.054;2023-04-08T11:33:08;18.08;;;11.73;;
35907;SDS011;22003;50.320;8.054;2023-04-08T11:35:33;18.88;;;11.45;;
35907;SDS011;22003;50.320;8.054;2023-04-08T11:37:58;16.52;;;11.60;;
35907;SDS011;22003;50.320;8.054;2023-04-08T11:40:24;19.27;;;12.75;;
35907;SDS011;22003;50.320;8.054;2023-04-08T11:42:50;16.98;;;11.52;;
35907;SDS011;22003;50.320;8.054;2023-04-08T11:45:17;18.38;;;11.65;;
35907;SDS011;22003;50.320;8.054;2023-04-08T11:47:45;17.90;;;12.13;;
35907;SDS011;22003;50.320;8.054;2023-04-08T11:50:11;19.60;;;12.00;;
35907;SDS011;22003;50.320;8.054;2023-04-08T11:52:43;20.35;;;11.73;;
35907;SDS011;22003;50.320;8.054;2023-04-08T11:55:11;20.13;;;13.15;;
35907;SDS011;22003;50.320;8.054;2023-04-08T11:57:45;17.08;;;11.27;;
35907;SDS011;22003;50.320;8.054;2023-04-08T12:00:10;20.67;;;11.88;;
35907;SDS011;22003;50.320;8.054;2023-04-08T12:02:36;17.98;;;11.82;;
35907;SDS011;22003;50.320;8.054;2023-04-08T12:05:01;19.05;;;12.75;;
35907;SDS011;22003;50.320;8.054;2023-04-08T12:07:27;19.80;;;12.57;;
35907;SDS011;22003;50.320;8.054;2023-04-08T12:09:52;19.60;;;12.20;;
35907;SDS011;22003;50.320;8.054;2023-04-08T12:12:18;20.13;;;12.48;;
35907;SDS011;22003;50.320;8.054;2023-04-08T12:14:43;20.67;;;12.13;;
35907;SDS011;22003;50.320;8.054;2023-04-08T12:17:09;16.90;;;11.18;;
35907;SDS011;22003;50.320;8.054;2023-04-08T12:19:34;17.00;;;11.95;;
35907;SDS011;22003;50.320;8.054;2023-04-08T12:22:00;16.25;;;11.02;;
35907;SDS011;22003;50.320;8.054;2023-04-08T12:24:25;19.58;;;11.88;;
35907;SDS011;22003;50.320;8.054;2023-04-08T12:26:50;16.70;;;10.57;;
35907;SDS011;22003;50.320;8.054;2023-04-08T12:29:15;15.77;;;11.05;;
35907;SDS011;22003;50.320;8.054;2023-04-08T12:31:41;16.08;;;10.25;;
35907;SDS011;22003;50.320;8.054;2023-04-08T12:34:06;17.00;;;10.38;;
35907;SDS011;22003;50.320;8.054;2023-04-08T12:36:31;15.15;;;10.07;;
35907;SDS011;22003;50.320;8.054;2023-04-08T12:38:57;16.60;;;11.32;;
35907;SDS011;22003;50.320;8.054;2023-04-08T12:41:22;18.30;;;12.18;;
35907;SDS011;22003;50.320;8.054;2023-04-08T12:43:48;18.30;;;12.73;;
35907;SDS011;22003;50.320;8.054;2023-04-08T12:46:13;17.60;;;11.75;;
35907;SDS011;22003;50.320;8.054;2023-04-08T12:48:38;15.77;;;10.63;;
35907;SDS011;22003;50.320;8.054;2023-04-08T12:51:03;17.25;;;11.45;;
35907;SDS011;22003;50.320;8.054;2023-04-08T12:53:29;15.90;;;10.93;;
35907;SDS011;22003;50.320;8.054;2023-04-08T12:55:55;18.67;;;11.85;;
35907;SDS011;22003;50.320;8.054;2023-04-08T12:58:22;17.25;;;11.35;;
35907;SDS011;22003;50.320;8.054;2023-04-08T13:00:49;18.67;;;11.75;;
35907;SDS011;22003;50.320;8.054;2023-04-08T13:03:14;16.15;;;10.68;;
35907;SDS011;22003;50.320;8.054;2023-04-08T13:05:41;16.88;;;10.32;;
35907;SDS011;22003;50.320;8.054;2023-04-08T13:08:07;16.38;;;10.75;;
35907;SDS011;22003;50.320;8.054;2023-04-08T13:10:32;16.63;;;9.65;;
35907;SDS011;22003;50.320;8.054;2023-04-08T13:12:57;16.33;;;10.68;;
35907;SDS011;22003;50.320;8.054;2023-04-08T13:15:23;15.65;;;10.43;;
35907;SDS011;22003;50.320;8.054;2023-04-08T13:17:48;15.45;;;10.15;;
35907;SDS011;22003;50.320;8.054;2023-04-08T13:20:13;16.77;;;9.68;;
35907;SDS011;22003;50.320;8.054;2023-04-08T13:22:38;18.83;;;11.18;;
35907;SDS011;22003;50.320;8.054;2023-04-08T13:25:05;14.18;;;9.38;;
35907;SDS011;22003;50.320;8.054;2023-04-08T13:27:31;16.05;;;10.27;;
35907;SDS011;22003;50.320;8.054;2023-04-08T13:29:56;15.18;;;9.63;;
35907;SDS011;22003;50.320;8.054;2023-04-08T13:32:21;14.50;;;9.55;;
35907;SDS011;22003;50.320;8.054;2023-04-08T13:34:47;13.77;;;9.43;;
35907;SDS011;22003;50.320;8.054;2023-04-08T13:37:12;14.50;;;9.85;;
35907;SDS011;22003;50.320;8.054;2023-04-08T13:39:37;15.07;;;10.25;;
35907;SDS011;22003;50.320;8.054;2023-04-08T13:42:02;14.25;;;10.35;;
35907;SDS011;22003;50.320;8.054;2023-04-08T13:44:28;14.70;;;10.35;;
35907;SDS011;22003;50.320;8.054;2023-04-08T13:46:53;15.27;;;10.00;;
35907;SDS011;22003;50.320;8.054;2023-04-08T13:49:18;13.07;;;9.73;;
35907;SDS011;22003;50.320;8.054;2023-04-08T13:51:44;17.27;;;9.65;;
35907;SDS011;22003;50.320;8.054;2023-04-08T13:54:10;13.43;;;9.00;;
35907;SDS011;22003;50.320;8.054;2023-04-08T13:56:35;14.20;;;9.88;;
35907;SDS011;22003;50.320;8.054;2023-04-08T13:59:00;12.57;;;9.00;;
35907;SDS011;22003;50.320;8.054;2023-04-08T14:01:26;13.27;;;9.13;;
35907;SDS011;22003;50.320;8.054;2023-04-08T14:03:51;13.85;;;9.52;;
35907;SDS011;22003;50.320;8.054;2023-04-08T14:06:16;12.98;;;9.25;;
35907;SDS011;22003;50.320;8.054;2023-04-08T14:08:41;14.35;;;9.93;;
35907;SDS011;22003;50.320;8.054;2023-04-08T14:11:07;17.88;;;11.50;;
35907;SDS011;22003;50.320;8.054;2023-04-08T14:13:32;15.80;;;10.10;;
35907;SDS011;22003;50.320;8.054;2023-04-08T14:15:57;15.35;;;9.32;;
35907;SDS011;22003;50.320;8.054;2023-04-08T14:20:51;13.85;;;9.48;;
35907;SDS011;22003;50.320;8.054;2023-04-08T14:23:16;12.38;;;8.93;;
35907;SDS011;22003;50.320;8.054;2023-04-08T14:25:41;16.23;;;9.00;;
35907;SDS011;22003;50.320;8.054;2023-04-08T14:28:07;12.20;;;8.75;;
35907;SDS011;22003;50.320;8.054;2023-04-08T14:30:32;15.38;;;9.35;;
35907;SDS011;22003;50.320;8.054;2023-04-08T14:32:59;12.40;;;9.67;;
35907;SDS011;22003;50.320;8.054;2023-04-08T14:35:25;13.07;;;8.70;;
35907;SDS011;22003;50.320;8.054;2023-04-08T14:37:50;13.23;;;9.25;;
35907;SDS011;22003;50.320;8.054;2023-04-08T14:40:15;13.85;;;8.25;;
35907;SDS011;22003;50.320;8.054;2023-04-08T14:42:41;13.07;;;8.55;;
35907;SDS011;22003;50.320;8.054;2023-04-08T14:45:06;11.95;;;8.32;;
35907;SDS011;22003;50.320;8.054;2023-04-08T14:47:32;15.13;;;7.82;;
35907;SDS011;22003;50.320;8.054;2023-04-08T14:49:57;14.15;;;8.07;;
35907;SDS011;22003;50.320;8.054;2023-04-08T14:52:22;12.60;;;7.55;;
35907;SDS011;22003;50.320;8.054;2023-04-08T14:54:48;11.30;;;8.10;;
35907;SDS011;22003;50.320;8.054;2023-04-08T14:57:14;13.38;;;8.38;;
35907;SDS011;22003;50.320;8.054;2023-04-08T14:59:40;13.55;;;7.93;;
35907;SDS011;22003;50.320;8.054;2023-04-08T15:02:05;11.32;;;7.68;;
35907;SDS011;22003;50.320;8.054;2023-04-08T15:04:31;10.68;;;7.75;;
35907;SDS011;22003;50.320;8.054;2023-04-08T15:06:56;12.13;;;7.85;;
35907;SDS011;22003;50.320;8.054;2023-04-08T15:09:21;12.82;;;7.90;;
35907;SDS011;22003;50.320;8.054;2023-04-08T15:11:47;12.48;;;8.63;;
35907;SDS011;22003;50.320;8.054;2023-04-08T15:14:12;11.38;;;7.70;;
35907;SDS011;22003;50.320;8.054;2023-04-08T15:16:37;12.02;;;7.70;;
35907;SDS011;22003;50.320;8.054;2023-04-08T15:19:02;11.30;;;7.55;;
35907;SDS011;22003;50.320;8.054;2023-04-08T15:21:29;11.17;;;6.90;;
35907;SDS011;22003;50.320;8.054;2023-04-08T15:23:55;9.75;;;6.95;;
35907;SDS011;22003;50.320;8.054;2023-04-08T15:26:20;11.45;;;7.85;;
35907;SDS011;22003;50.320;8.054;2023-04-08T15:28:45;11.30;;;7.30;;
35907;SDS011;22003;50.320;8.054;2023-04-08T15:31:11;9.48;;;6.85;;
35907;SDS011;22003;50.320;8.054;2023-04-08T15:33:36;10.52;;;7.38;;
35907;SDS011;22003;50.320;8.054;2023-04-08T15:36:06;9.88;;;6.95;;
35907;SDS011;22003;50.320;8.054;2023-04-08T15:38:32;11.13;;;7.80;;
35907;SDS011;22003;50.320;8.054;2023-04-08T15:40:58;12.50;;;8.40;;
35907;SDS011;22003;50.320;8.054;2023-04-08T15:43:23;12.63;;;8.00;;
35907;SDS011;22003;50.320;8.054;2023-04-08T15:45:48;12.50;;;7.32;;
35907;SDS011;22003;50.320;8.054;2023-04-08T15:48:14;10.68;;;7.05;;
35907;SDS011;22003;50.320;8.054;2023-04-08T15:50:39;11.55;;;6.20;;
35907;SDS011;22003;50.320;8.054;2023-04-08T15:53:05;9.77;;;6.00;;
35907;SDS011;22003;50.320;8.054;2023-04-08T15:55:36;7.18;;;5.57;;
35907;SDS011;22003;50.320;8.054;2023-04-08T15:58:02;7.80;;;5.40;;
35907;SDS011;22003;50.320;8.054;2023-04-08T16:00:27;8.65;;;5.95;;
35907;SDS011;22003;50.320;8.054;2023-04-08T16:02:53;7.55;;;5.00;;
35907;SDS011;22003;50.320;8.054;2023-04-08T16:05:18;8.15;;;5.72;;
35907;SDS011;22003;50.320;8.054;2023-04-08T16:07:43;9.02;;;5.78;;
35907;SDS011;22003;50.320;8.054;2023-04-08T16:10:09;8.98;;;6.53;;
35907;SDS011;22003;50.320;8.054;2023-04-08T16:12:34;11.27;;;6.75;;
35907;SDS011;22003;50.320;8.054;2023-04-08T16:15:00;25.30;;;13.23;;
35907;SDS011;22003;50.320;8.054;2023-04-08T16:17:25;8.73;;;5.68;;
35907;SDS011;22003;50.320;8.054;2023-04-08T16:19:52;9.93;;;6.10;;
35907;SDS011;22003;50.320;8.054;2023-04-08T16:22:17;8.43;;;5.80;;
35907;SDS011;22003;50.320;8.054;2023-04-08T16:24:43;8.60;;;5.05;;
35907;SDS011;22003;50.320;8.054;2023-04-08T16:27:08;7.30;;;5.00;;
35907;SDS011;22003;50.320;8.054;2023-04-08T16:29:33;7.68;;;5.47;;
35907;SDS011;22003;50.320;8.054;2023-04-08T16:31:59;7.50;;;5.45;;
35907;SDS011;22003;50.320;8.054;2023-04-08T16:34:25;8.48;;;5.88;;
35907;SDS011;22003;50.320;8.054;2023-04-08T16:36:52;17.95;;;11.57;;
35907;SDS011;22003;50.320;8.054;2023-04-08T16:39:17;8.30;;;5.80;;
35907;SDS011;22003;50.320;8.054;2023-04-08T16:41:42;8.20;;;5.20;;
35907;SDS011;22003;50.320;8.054;2023-04-08T16:44:08;9.88;;;5.53;;
35907;SDS011;22003;50.320;8.054;2023-04-08T16:46:34;7.93;;;5.13;;
35907;SDS011;22003;50.320;8.054;2023-04-08T16:49:00;7.47;;;4.80;;
35907;SDS011;22003;50.320;8.054;2023-04-08T16:51:25;7.97;;;5.30;;
35907;SDS011;22003;50.320;8.054;2023-04-08T16:53:50;8.32;;;5.50;;
35907;SDS011;22003;50.320;8.054;2023-04-08T16:56:16;7.30;;;5.82;;
35907;SDS011;22003;50.320;8.054;2023-04-08T16:58:41;8.73;;;6.40;;
35907;SDS011;22003;50.320;8.054;2023-04-08T17:01:08;9.93;;;6.20;;
35907;SDS011;22003;50.320;8.054;2023-04-08T17:03:34;9.07;;;5.97;;
35907;SDS011;22003;50.320;8.054;2023-04-08T17:06:09;9.90;;;6.60;;
35907;SDS011;22003;50.320;8.054;2023-04-08T17:08:36;10.45;;;5.93;;
35907;SDS011;22003;50.320;8.054;2023-04-08T17:11:19;9.20;;;5.72;;
35907;SDS011;22003;50.320;8.054;2023-04-08T17:13:45;10.55;;;6.25;;
35907;SDS011;22003;50.320;8.054;2023-04-08T17:16:12;10.65;;;7.05;;
35907;SDS011;22003;50.320;8.054;2023-04-08T17:18:38;10.05;;;6.93;;
35907;SDS011;22003;50.320;8.054;2023-04-08T17:21:03;9.60;;;6.45;;
35907;SDS011;22003;50.320;8.054;2023-04-08T17:23:28;9.40;;;6.38;;
35907;SDS011;22003;50.320;8.054;2023-04-08T17:25:54;9.93;;;6.68;;
35907;SDS011;22003;50.320;8.054;2023-04-08T17:28:20;10.00;;;6.80;;
35907;SDS011;22003;50.320;8.054;2023-04-08T17:30:45;11.05;;;6.47;;
35907;SDS011;22003;50.320;8.054;2023-04-08T17:33:11;11.32;;;6.80;;
35907;SDS011;22003;50.320;8.054;2023-04-08T17:35:37;10.85;;;6.72;;
35907;SDS011;22003;50.320;8.054;2023-04-08T17:38:02;9.23;;;6.00;;
35907;SDS011;22003;50.320;8.054;2023-04-08T17:40:28;9.90;;;6.80;;
35907;SDS011;22003;50.320;8.054;2023-04-08T17:42:53;8.98;;;6.40;;
35907;SDS011;22003;50.320;8.054;2023-04-08T17:45:18;12.20;;;7.97;;
35907;SDS011;22003;50.320;8.054;2023-04-08T17:47:44;10.82;;;6.80;;
35907;SDS011;22003;50.320;8.054;2023-04-08T17:50:09;9.90;;;6.80;;
35907;SDS011;22003;50.320;8.054;2023-04-08T17:52:34;9.35;;;6.40;;
35907;SDS011;22003;50.320;8.054;2023-04-08T17:55:00;11.48;;;7.35;;
35907;SDS011;22003;50.320;8.054;2023-04-08T17:57:26;11.73;;;7.05;;
35907;SDS011;22003;50.320;8.054;2023-04-08T17:59:52;11.05;;;7.13;;
35907;SDS011;22003;50.320;8.054;2023-04-08T18:02:18;11.38;;;7.32;;
35907;SDS011;22003;50.320;8.054;2023-04-08T18:04:43;10.88;;;7.03;;
35907;SDS011;22003;50.320;8.054;2023-04-08T18:07:08;11.88;;;6.93;;
35907;SDS011;22003;50.320;8.054;2023-04-08T18:09:34;10.52;;;7.03;;
35907;SDS011;22003;50.320;8.054;2023-04-08T18:11:59;13.70;;;7.90;;
35907;SDS011;22003;50.320;8.054;2023-04-08T18:14:26;9.75;;;7.50;;
35907;SDS011;22003;50.320;8.054;2023-04-08T18:16:52;14.38;;;8.50;;
35907;SDS011;22003;50.320;8.054;2023-04-08T18:19:17;11.70;;;7.93;;
35907;SDS011;22003;50.320;8.054;2023-04-08T18:21:43;11.00;;;7.60;;
35907;SDS011;22003;50.320;8.054;2023-04-08T18:24:08;13.52;;;8.63;;
35907;SDS011;22003;50.320;8.054;2023-04-08T18:26:33;15.43;;;8.68;;
35907;SDS011;22003;50.320;8.054;2023-04-08T18:28:58;15.35;;;9.63;;
35907;SDS011;22003;50.320;8.054;2023-04-08T18:31:24;14.40;;;8.73;;
35907;SDS011;22003;50.320;8.054;2023-04-08T18:33:49;16.50;;;9.35;;
35907;SDS011;22003;50.320;8.054;2023-04-08T18:36:14;15.98;;;9.05;;
35907;SDS011;22003;50.320;8.054;2023-04-08T18:38:40;12.65;;;8.13;;
35907;SDS011;22003;50.320;8.054;2023-04-08T18:41:06;14.23;;;9.77;;
35907;SDS011;22003;50.320;8.054;2023-04-08T18:43:32;13.27;;;9.57;;
35907;SDS011;22003;50.320;8.054;2023-04-08T18:45:57;43.88;;;21.85;;